Time;durP1;ratioP1;P1;durP2;ratioP2;P2;SDS_P1;SDS_P2;PMS_P1;PMS_P2;Temp;Humidity;BMP_temperature;BMP_pressure;BME280_temperature;BME280_humidity;BME280_pressure;Samples;Min_cycle;Max_cycle;Signal;HPM_P1;HPM_P2
2023/07/21 00:01:03;;;;;;;0.00;0.00;;;19.10;74.50;;;;;;5094006;28;20226;-67
2023/07/21 00:03:30;;;;;;;0.00;0.00;;;19.10;75.10;;;;;;5093797;28;20195;-67
2023/07/21 00:05:56;;;;;;;0.00;0.00;;;19.10;75.80;;;;;;5092742;28;20529;-67
2023/07/21 00:08:24;;;;;;;0.00;0.00;;;19.00;76.10;;;;;;5092920;28;20260;-68
2023/07/21 00:10:50;;;;;;;0.00;0.00;;;18.90;76.00;;;;;;5092386;28;20176;-67
2023/07/21 00:13:15;;;;;;;0.00;0.00;;;18.90;76.60;;;;;;5093203;28;20191;-67
2023/07/21 00:15:41;;;;;;;0.00;0.00;;;18.90;76.90;;;;;;5093342;28;20183;-67
2023/07/21 00:18:07;;;;;;;0.00;0.00;;;18.80;77.40;;;;;;5093179;28;20191;-67
2023/07/21 00:20:32;;;;;;;0.00;0.00;;;18.80;77.50;;;;;;5093660;28;20173;-67
2023/07/21 00:22:58;;;;;;;0.00;0.00;;;18.80;77.60;;;;;;5093393;28;20188;-67
2023/07/21 00:25:24;;;;;;;0.00;0.00;;;18.70;77.60;;;;;;5093646;28;20177;-67
2023/07/21 00:27:49;;;;;;;0.00;0.00;;;18.70;77.70;;;;;;5092949;28;20223;-67
2023/07/21 00:30:16;;;;;;;0.00;0.00;;;18.60;77.70;;;;;;5091881;28;20184;-67
2023/07/21 00:32:42;;;;;;;0.00;0.00;;;18.60;78.00;;;;;;5093527;28;20225;-67
2023/07/21 00:35:08;;;;;;;0.05;0.05;;;18.60;78.20;;;;;;5093546;28;20180;-67
2023/07/21 00:37:38;;;;;;;0.00;0.00;;;18.60;78.80;;;;;;5091948;28;20600;-67
2023/07/21 00:40:05;;;;;;;0.00;0.00;;;18.50;78.80;;;;;;5092602;28;20245;-67
2023/07/21 00:42:31;;;;;;;0.00;0.00;;;18.50;78.90;;;;;;5081390;28;20711;-67
2023/07/21 00:44:57;;;;;;;0.95;0.65;;;18.40;78.80;;;;;;5083508;28;20176;-68
2023/07/21 00:47:24;;;;;;;0.00;0.00;;;18.40;79.20;;;;;;5093268;28;20220;-67
2023/07/21 00:49:50;;;;;;;0.00;0.00;;;18.30;79.90;;;;;;5093298;28;20180;-67
2023/07/21 00:52:18;;;;;;;0.00;0.00;;;18.30;80.30;;;;;;5090934;28;20226;-67
2023/07/21 00:54:47;;;;;;;0.00;0.00;;;18.20;80.20;;;;;;5093496;28;20172;-67
2023/07/21 00:57:14;;;;;;;1.10;1.00;;;18.20;80.60;;;;;;5079058;28;20185;-67
2023/07/21 00:59:40;;;;;;;0.00;0.00;;;18.10;80.80;;;;;;5085903;28;20271;-67
2023/07/21 01:02:06;;;;;;;0.00;0.00;;;18.10;80.90;;;;;;5092904;28;20271;-67
2023/07/21 01:04:32;;;;;;;0.00;0.00;;;18.10;81.40;;;;;;5093044;28;20183;-66
2023/07/21 01:06:59;;;;;;;0.00;0.00;;;18.00;81.60;;;;;;5092600;28;20600;-67
2023/07/21 01:09:27;;;;;;;0.00;0.00;;;18.00;82.10;;;;;;5092829;28;20176;-67
2023/07/21 01:11:54;;;;;;;0.00;0.00;;;18.00;82.20;;;;;;5093057;28;20169;-68
2023/07/21 01:14:19;;;;;;;0.00;0.00;;;17.90;82.50;;;;;;5092734;28;20184;-67
2023/07/21 01:16:46;;;;;;;0.00;0.00;;;17.80;83.30;;;;;;5092843;28;20175;-67
2023/07/21 01:19:14;;;;;;;0.00;0.00;;;17.80;83.90;;;;;;5092567;28;20188;-67
2023/07/21 01:21:46;;;;;;;0.00;0.00;;;17.70;84.30;;;;;;5091400;28;20664;-68
2023/07/21 01:24:23;;;;;;;0.00;0.00;;;17.60;84.80;;;;;;5092601;28;20650;-67
2023/07/21 01:26:50;;;;;;;0.00;0.00;;;17.60;85.10;;;;;;5084772;28;20325;-67
2023/07/21 01:29:18;;;;;;;0.00;0.00;;;17.50;85.60;;;;;;5080401;28;20298;-67
2023/07/21 01:31:45;;;;;;;0.00;0.00;;;17.50;86.20;;;;;;5092665;28;20263;-67
2023/07/21 01:34:14;;;;;;;0.00;0.00;;;17.40;86.50;;;;;;5092241;28;20183;-67
2023/07/21 01:36:41;;;;;;;0.00;0.00;;;17.40;86.90;;;;;;5091750;28;20180;-67
2023/07/21 01:39:07;;;;;;;0.00;0.00;;;17.40;87.80;;;;;;5092298;28;20199;-69
2023/07/21 01:41:33;;;;;;;0.00;0.00;;;17.40;88.30;;;;;;5091988;28;20177;-67
2023/07/21 01:43:59;;;;;;;0.00;0.00;;;17.40;88.90;;;;;;5090959;28;20187;-68
2023/07/21 01:46:26;;;;;;;0.00;0.00;;;17.40;89.90;;;;;;5091834;28;20176;-68
2023/07/21 01:48:51;;;;;;;0.00;0.00;;;17.30;90.10;;;;;;5090620;28;20208;-67
2023/07/21 01:51:19;;;;;;;0.00;0.00;;;17.30;90.20;;;;;;5092055;28;20603;-67
2023/07/21 01:53:53;;;;;;;0.00;0.00;;;17.30;90.30;;;;;;5092148;28;20203;-67
2023/07/21 01:56:31;;;;;;;0.00;0.00;;;17.30;90.50;;;;;;5091618;28;20219;-68
2023/07/21 01:59:02;;;;;;;0.00;0.00;;;17.30;90.50;;;;;;5089031;28;20203;-67
2023/07/21 02:01:29;;;;;;;0.00;0.00;;;17.30;90.50;;;;;;5091698;28;20195;-67
2023/07/21 02:03:54;;;;;;;0.00;0.00;;;17.20;90.70;;;;;;5092011;28;20259;-67
2023/07/21 02:06:20;;;;;;;0.20;0.20;;;17.10;91.00;;;;;;5091761;28;20214;-67
2023/07/21 02:08:46;;;;;;;0.22;0.22;;;17.10;91.30;;;;;;5091546;28;20219;-67
2023/07/21 02:11:12;;;;;;;0.00;0.00;;;17.00;91.40;;;;;;5089753;28;20200;-67
2023/07/21 02:13:39;;;;;;;0.00;0.00;;;17.00;91.70;;;;;;5091212;28;20180;-67
2023/07/21 02:16:05;;;;;;;0.00;0.00;;;16.90;92.20;;;;;;5091527;28;20537;-67
2023/07/21 02:18:33;;;;;;;0.00;0.00;;;16.90;91.90;;;;;;5091368;28;20233;-67
2023/07/21 02:21:02;;;;;;;0.00;0.00;;;16.90;92.20;;;;;;5091494;28;20172;-67
2023/07/21 02:23:28;;;;;;;0.00;0.00;;;16.90;92.60;;;;;;5088265;28;20700;-67
2023/07/21 02:25:53;;;;;;;0.00;0.00;;;16.80;93.10;;;;;;5090134;28;20176;-67
2023/07/21 02:28:19;;;;;;;0.00;0.00;;;16.80;93.20;;;;;;5090887;28;20228;-67
2023/07/21 02:30:45;;;;;;;0.00;0.00;;;16.80;93.00;;;;;;5094137;28;20171;-67
2023/07/21 02:33:10;;;;;;;0.10;0.10;;;16.80;93.20;;;;;;5091140;28;20636;-67
2023/07/21 02:35:36;;;;;;;0.00;0.00;;;16.70;93.30;;;;;;5089998;28;20550;-67
2023/07/21 02:38:03;;;;;;;0.00;0.00;;;16.70;93.40;;;;;;5091289;28;20565;-66
2023/07/21 02:40:31;;;;;;;0.00;0.00;;;16.70;93.60;;;;;;5091323;28;20180;-67
2023/07/21 02:42:57;;;;;;;0.00;0.00;;;16.70;93.80;;;;;;5089970;28;20184;-67
2023/07/21 02:45:22;;;;;;;0.00;0.00;;;16.70;93.70;;;;;;5091104;28;20172;-67
2023/07/21 02:47:48;;;;;;;0.00;0.00;;;16.60;93.70;;;;;;5091602;28;20294;-67
2023/07/21 02:50:14;;;;;;;0.00;0.00;;;16.60;93.70;;;;;;5091309;28;20180;-66
2023/07/21 02:52:40;;;;;;;0.00;0.00;;;16.60;93.80;;;;;;5091382;28;20673;-67
2023/07/21 02:55:07;;;;;;;0.47;0.47;;;16.60;94.00;;;;;;5091168;28;20187;-67
2023/07/21 02:57:34;;;;;;;0.00;0.00;;;16.60;94.20;;;;;;5074795;28;20173;-67
2023/07/21 03:00:05;;;;;;;0.00;0.00;;;16.60;94.20;;;;;;5071251;28;20168;-67
2023/07/21 03:02:34;;;;;;;0.00;0.00;;;16.50;94.40;;;;;;5071984;28;20803;-67
2023/07/21 03:05:03;;;;;;;0.00;0.00;;;16.50;94.50;;;;;;5089888;28;20783;-67
2023/07/21 03:07:29;;;;;;;0.00;0.00;;;16.50;94.70;;;;;;5091016;28;20608;-67
2023/07/21 03:09:55;;;;;;;0.00;0.00;;;16.50;94.90;;;;;;5091288;28;20192;-67
2023/07/21 03:12:20;;;;;;;0.00;0.00;;;16.50;95.10;;;;;;5091172;28;20673;-67
2023/07/21 03:14:48;;;;;;;0.10;0.10;;;16.50;95.00;;;;;;5091168;28;20183;-67
2023/07/21 03:17:14;;;;;;;0.00;0.00;;;16.50;95.00;;;;;;5091076;28;20218;-67
2023/07/21 03:19:40;;;;;;;0.00;0.00;;;16.50;95.10;;;;;;5089368;28;20682;-67
2023/07/21 03:22:05;;;;;;;0.00;0.00;;;16.40;95.50;;;;;;5090675;28;20172;-67
2023/07/21 03:24:32;;;;;;;0.00;0.00;;;16.40;95.40;;;;;;5090408;28;20301;-67
2023/07/21 03:26:58;;;;;;;0.00;0.00;;;16.40;95.50;;;;;;5090563;28;20223;-67
2023/07/21 03:29:24;;;;;;;0.00;0.00;;;16.40;95.50;;;;;;5090452;28;20222;-67
2023/07/21 03:31:49;;;;;;;0.00;0.00;;;16.40;95.60;;;;;;5089883;28;20172;-67
2023/07/21 03:34:15;;;;;;;0.30;0.05;;;16.30;95.50;;;;;;5089940;28;20188;-67
2023/07/21 03:36:40;;;;;;;0.00;0.00;;;16.40;95.80;;;;;;5090414;28;20226;-68
2023/07/21 03:39:06;;;;;;;0.00;0.00;;;16.30;95.80;;;;;;5090535;28;20245;-67
2023/07/21 03:41:31;;;;;;;0.00;0.00;;;16.30;96.00;;;;;;5090098;28;20669;-68
2023/07/21 03:43:58;;;;;;;0.00;0.00;;;16.40;96.10;;;;;;5090507;28;20198;-67
2023/07/21 03:46:23;;;;;;;0.00;0.00;;;16.40;96.30;;;;;;5090180;28;20179;-67
2023/07/21 03:48:50;;;;;;;0.00;0.00;;;16.40;96.40;;;;;;5090748;28;20229;-67
2023/07/21 03:51:15;;;;;;;0.00;0.00;;;16.40;96.10;;;;;;5089899;28;20176;-67
2023/07/21 03:53:41;;;;;;;0.05;0.05;;;16.40;95.80;;;;;;5089054;28;20184;-68
2023/07/21 03:56:07;;;;;;;0.05;0.05;;;16.50;95.70;;;;;;5085667;28;20565;-68
2023/07/21 03:58:33;;;;;;;0.00;0.00;;;16.50;95.80;;;;;;5089749;28;20219;-69
2023/07/21 04:00:59;;;;;;;0.00;0.00;;;16.50;95.60;;;;;;5089595;28;20248;-68
2023/07/21 04:03:25;;;;;;;0.00;0.00;;;16.60;95.60;;;;;;5090089;28;20172;-67
2023/07/21 04:05:54;;;;;;;3.63;0.30;;;16.60;95.70;;;;;;5088845;28;20600;-67
2023/07/21 04:08:19;;;;;;;0.03;0.03;;;16.60;95.70;;;;;;5089679;28;20257;-65
2023/07/21 04:10:46;;;;;;;0.00;0.00;;;16.60;95.90;;;;;;5100095;28;20183;-69
2023/07/21 04:13:11;;;;;;;0.00;0.00;;;16.60;96.00;;;;;;5090261;28;20188;-67
2023/07/21 04:15:37;;;;;;;0.00;0.00;;;16.60;96.20;;;;;;5088815;28;20184;-66
2023/07/21 04:18:04;;;;;;;0.00;0.00;;;16.70;96.10;;;;;;5089838;28;20172;-67
2023/07/21 04:20:30;;;;;;;0.00;0.00;;;16.70;96.20;;;;;;5090074;28;20179;-68
2023/07/21 04:22:55;;;;;;;0.00;0.00;;;16.70;96.10;;;;;;5089727;28;20176;-68
2023/07/21 04:25:21;;;;;;;0.03;0.03;;;16.80;96.20;;;;;;5089663;28;20188;-69
2023/07/21 04:27:50;;;;;;;0.00;0.00;;;16.80;96.30;;;;;;5088032;28;20223;-69
2023/07/21 04:30:16;;;;;;;0.00;0.00;;;16.80;96.60;;;;;;5088236;28;20585;-69
2023/07/21 04:32:42;;;;;;;0.00;0.00;;;16.90;96.80;;;;;;5090132;28;20183;-69
2023/07/21 04:35:08;;;;;;;0.00;0.00;;;17.00;96.90;;;;;;5091148;28;20531;-69
2023/07/21 04:37:38;;;;;;;0.00;0.00;;;17.00;97.20;;;;;;5093946;28;20172;-69
2023/07/21 04:40:06;;;;;;;0.10;0.10;;;17.10;97.50;;;;;;5094012;28;20182;-70
2023/07/21 04:42:32;;;;;;;0.00;0.00;;;17.10;97.20;;;;;;5093820;28;20639;-69
2023/07/21 04:44:58;;;;;;;0.00;0.00;;;17.10;97.20;;;;;;5093598;28;20539;-69
2023/07/21 04:47:24;;;;;;;0.00;0.00;;;17.10;97.20;;;;;;5093907;28;20173;-68
2023/07/21 04:49:50;;;;;;;0.00;0.00;;;17.20;97.40;;;;;;5093897;28;20228;-69
2023/07/21 04:52:16;;;;;;;0.00;0.00;;;17.20;97.60;;;;;;5093576;28;20164;-69
2023/07/21 04:54:42;;;;;;;0.00;0.00;;;17.20;97.70;;;;;;5093585;28;20325;-68
2023/07/21 04:57:07;;;;;;;0.00;0.00;;;17.30;97.80;;;;;;5093752;28;20183;-69
2023/07/21 04:59:33;;;;;;;0.00;0.00;;;17.30;97.80;;;;;;5093661;28;20207;-69
2023/07/21 05:01:58;;;;;;;0.00;0.00;;;17.30;98.00;;;;;;5093605;28;20172;-69
2023/07/21 05:04:24;;;;;;;0.00;0.00;;;17.40;98.10;;;;;;5093510;28;20180;-69
2023/07/21 05:06:50;;;;;;;0.00;0.00;;;17.40;97.90;;;;;;5093618;28;20176;-69
2023/07/21 05:09:15;;;;;;;0.00;0.00;;;17.50;98.00;;;;;;5093601;28;20226;-68
2023/07/21 05:11:42;;;;;;;0.08;0.08;;;17.50;97.90;;;;;;5093548;28;20534;-68
2023/07/21 05:14:07;;;;;;;0.00;0.00;;;17.60;98.10;;;;;;5092977;28;20176;-69
2023/07/21 05:16:36;;;;;;;0.00;0.00;;;17.60;98.00;;;;;;5093636;28;20257;-68
2023/07/21 05:19:02;;;;;;;0.00;0.00;;;17.70;98.20;;;;;;5093545;28;20161;-68
2023/07/21 05:21:28;;;;;;;0.00;0.00;;;17.80;98.10;;;;;;5093182;28;20178;-69
2023/07/21 05:23:54;;;;;;;0.00;0.00;;;17.80;98.00;;;;;;5092803;28;20180;-70
2023/07/21 05:26:21;;;;;;;0.00;0.00;;;17.80;97.90;;;;;;5093019;28;20322;-69
2023/07/21 05:28:47;;;;;;;0.00;0.00;;;17.90;97.80;;;;;;5092853;28;20239;-70
2023/07/21 05:31:12;;;;;;;0.00;0.00;;;17.90;97.10;;;;;;5092973;28;20179;-69
2023/07/21 05:33:38;;;;;;;0.00;0.00;;;17.90;96.90;;;;;;5092928;28;20176;-70
2023/07/21 05:36:09;;;;;;;0.00;0.00;;;17.90;96.80;;;;;;5093067;28;20592;-70
2023/07/21 05:38:37;;;;;;;0.00;0.00;;;17.90;96.40;;;;;;5092997;28;20179;-69
2023/07/21 05:41:02;;;;;;;0.00;0.00;;;18.00;95.70;;;;;;5091631;28;20176;-69
2023/07/21 05:43:28;;;;;;;0.00;0.00;;;18.10;95.20;;;;;;5092777;28;20168;-70
2023/07/21 05:45:54;;;;;;;0.00;0.00;;;18.20;95.20;;;;;;5092903;28;20263;-69
2023/07/21 05:48:19;;;;;;;0.00;0.00;;;18.30;95.10;;;;;;5092416;28;20260;-69
2023/07/21 05:50:45;;;;;;;0.00;0.00;;;18.50;95.10;;;;;;5092814;28;20211;-69
2023/07/21 05:53:10;;;;;;;0.00;0.00;;;18.60;94.60;;;;;;5092475;28;20181;-70
2023/07/21 05:55:40;;;;;;;0.00;0.00;;;18.60;94.10;;;;;;5092304;28;20168;-69
2023/07/21 05:58:05;;;;;;;0.00;0.00;;;18.70;93.80;;;;;;5092355;28;20248;-69
2023/07/21 06:00:36;;;;;;;0.00;0.00;;;18.80;93.70;;;;;;5092251;28;20674;-70
2023/07/21 06:03:02;;;;;;;0.00;0.00;;;18.70;93.60;;;;;;5091031;28;20661;-69
2023/07/21 06:05:27;;;;;;;0.00;0.00;;;18.70;93.70;;;;;;5092145;28;20180;-69
2023/07/21 06:07:53;;;;;;;0.00;0.00;;;18.70;93.40;;;;;;5092154;28;20858;-69
2023/07/21 06:10:19;;;;;;;0.00;0.00;;;18.70;93.10;;;;;;5091905;28;20191;-69
2023/07/21 06:12:45;;;;;;;0.00;0.00;;;18.80;93.10;;;;;;5092232;28;20172;-69
2023/07/21 06:15:10;;;;;;;0.00;0.00;;;18.80;93.20;;;;;;5091912;28;20179;-69
2023/07/21 06:17:37;;;;;;;0.00;0.00;;;18.90;93.10;;;;;;5092044;28;20619;-69
2023/07/21 06:20:04;;;;;;;0.00;0.00;;;18.90;92.70;;;;;;5092024;28;20263;-69
2023/07/21 06:22:30;;;;;;;0.00;0.00;;;18.90;92.50;;;;;;5090651;28;20184;-69
2023/07/21 06:24:55;;;;;;;0.00;0.00;;;19.00;92.30;;;;;;5091815;28;20233;-70
2023/07/21 06:27:21;;;;;;;0.00;0.00;;;19.00;92.60;;;;;;5091403;28;20265;-69
2023/07/21 06:29:46;;;;;;;0.00;0.00;;;19.10;92.30;;;;;;5091781;28;20216;-70
2023/07/21 06:32:12;;;;;;;0.00;0.00;;;19.20;92.50;;;;;;5091770;28;20218;-69
2023/07/21 06:34:37;;;;;;;0.00;0.00;;;19.40;92.60;;;;;;5091763;28;20183;-69
2023/07/21 06:37:03;;;;;;;0.00;0.00;;;19.60;92.60;;;;;;5091974;28;20237;-70
2023/07/21 06:39:28;;;;;;;0.00;0.00;;;19.80;91.90;;;;;;5090365;28;20180;-70
2023/07/21 06:41:54;;;;;;;0.00;0.00;;;19.90;91.90;;;;;;5091889;28;20183;-70
2023/07/21 06:44:20;;;;;;;0.00;0.00;;;20.00;91.60;;;;;;5091554;28;20173;-69
2023/07/21 06:46:47;;;;;;;0.00;0.00;;;20.00;91.00;;;;;;5091759;28;20180;-70
2023/07/21 06:49:14;;;;;;;0.00;0.00;;;20.00;91.10;;;;;;5091476;28;20226;-70
2023/07/21 06:51:40;;;;;;;0.00;0.00;;;20.00;90.50;;;;;;5091602;28;20187;-69
2023/07/21 06:54:08;;;;;;;0.00;0.00;;;20.00;90.80;;;;;;5091607;28;20164;-70
2023/07/21 06:56:34;;;;;;;0.00;0.00;;;20.10;91.00;;;;;;5091585;28;20179;-70
2023/07/21 06:58:59;;;;;;;0.00;0.00;;;20.10;90.50;;;;;;5090941;28;20569;-70
2023/07/21 07:01:25;;;;;;;0.00;0.00;;;20.10;90.50;;;;;;5091469;28;20183;-70
2023/07/21 07:03:51;;;;;;;0.03;0.03;;;20.20;90.90;;;;;;5090226;28;20233;-70
2023/07/21 07:06:17;;;;;;;0.00;0.00;;;20.30;90.70;;;;;;5091226;28;20172;-70
2023/07/21 07:08:43;;;;;;;0.00;0.00;;;20.40;90.70;;;;;;5091388;28;20200;-69
2023/07/21 07:11:09;;;;;;;0.00;0.00;;;20.50;91.00;;;;;;5091305;28;20183;-70
2023/07/21 07:13:35;;;;;;;0.00;0.00;;;20.50;91.10;;;;;;5091369;28;20237;-70
2023/07/21 07:16:00;;;;;;;0.00;0.00;;;20.60;91.50;;;;;;5090013;28;20176;-70
2023/07/21 07:18:26;;;;;;;0.00;0.00;;;20.50;91.30;;;;;;5091259;28;20265;-70
2023/07/21 07:20:53;;;;;;;0.00;0.00;;;20.60;91.20;;;;;;5091214;28;20225;-70
2023/07/21 07:23:19;;;;;;;0.00;0.00;;;20.60;91.20;;;;;;5090992;28;20183;-70
2023/07/21 07:25:53;;;;;;;0.00;0.00;;;20.70;91.00;;;;;;5091218;28;20499;-70
2023/07/21 07:28:20;;;;;;;0.00;0.00;;;20.70;90.80;;;;;;5090849;28;20228;-70
2023/07/21 07:30:47;;;;;;;0.00;0.00;;;20.70;90.60;;;;;;5091471;28;20172;-70
2023/07/21 07:33:14;;;;;;;0.00;0.00;;;20.80;90.70;;;;;;5091364;28;20300;-70
2023/07/21 07:35:47;;;;;;;0.00;0.00;;;20.90;90.80;;;;;;5091281;28;20184;-70
2023/07/21 07:38:12;;;;;;;0.00;0.00;;;21.10;90.50;;;;;;5091371;28;20176;-70
2023/07/21 07:40:39;;;;;;;0.00;0.00;;;21.50;90.60;;;;;;5091194;28;20172;-70
2023/07/21 07:43:04;;;;;;;0.00;0.00;;;22.20;89.80;;;;;;5091426;28;20245;-70
2023/07/21 07:45:30;;;;;;;0.00;0.00;;;22.70;87.40;;;;;;5091259;28;20217;-70
2023/07/21 07:47:56;;;;;;;0.00;0.00;;;23.10;86.80;;;;;;5091142;28;20291;-70
2023/07/21 07:50:22;;;;;;;0.00;0.00;;;24.00;85.00;;;;;;5091290;28;20301;-70
2023/07/21 07:52:47;;;;;;;0.00;0.00;;;24.60;82.20;;;;;;5091316;28;20184;-70
2023/07/21 07:55:15;;;;;;;0.00;0.00;;;24.70;78.10;;;;;;5091174;28;20172;-70
2023/07/21 07:57:40;;;;;;;0.00;0.00;;;24.50;77.70;;;;;;5091115;28;20176;-70
2023/07/21 08:00:08;;;;;;;0.00;0.00;;;24.50;76.60;;;;;;5091240;28;20183;-70
2023/07/21 08:02:34;;;;;;;0.00;0.00;;;24.40;77.10;;;;;;5091185;28;20168;-71
2023/07/21 08:04:59;;;;;;;0.00;0.00;;;24.20;74.20;;;;;;5091041;28;20711;-70
2023/07/21 08:07:25;;;;;;;0.00;0.00;;;24.00;74.10;;;;;;5091006;28;20620;-69
2023/07/21 08:09:50;;;;;;;0.00;0.00;;;23.60;74.50;;;;;;5091679;28;20192;-70
2023/07/21 08:12:16;;;;;;;0.00;0.00;;;23.30;76.00;;;;;;5094761;28;20222;-70
2023/07/21 08:14:41;;;;;;;0.00;0.00;;;23.00;77.30;;;;;;5094977;28;20208;-69
2023/07/21 08:17:08;;;;;;;0.00;0.00;;;22.80;77.50;;;;;;5094884;28;20192;-69
2023/07/21 08:19:34;;;;;;;0.00;0.00;;;22.60;77.40;;;;;;5094837;28;20190;-70
2023/07/21 08:22:05;;;;;;;0.00;0.00;;;22.40;78.70;;;;;;5094752;28;20707;-70
2023/07/21 08:24:31;;;;;;;0.00;0.00;;;22.40;79.20;;;;;;5094748;28;20615;-69
2023/07/21 08:26:59;;;;;;;0.00;0.00;;;22.40;79.80;;;;;;5093113;28;20270;-70
2023/07/21 08:29:25;;;;;;;0.00;0.00;;;22.50;79.60;;;;;;5094482;28;20249;-70
2023/07/21 08:31:51;;;;;;;0.00;0.00;;;22.60;79.80;;;;;;5094731;28;20642;-70
2023/07/21 08:34:16;;;;;;;0.00;0.00;;;22.60;78.90;;;;;;5094514;28;20172;-70
2023/07/21 08:36:42;;;;;;;0.00;0.00;;;22.70;79.60;;;;;;5094639;28;20631;-70
2023/07/21 08:39:08;;;;;;;0.00;0.00;;;22.90;79.50;;;;;;5094474;28;20669;-70
2023/07/21 08:41:37;;;;;;;0.00;0.00;;;23.20;80.10;;;;;;5094654;28;20176;-70
2023/07/21 08:44:05;;;;;;;0.03;0.03;;;23.50;79.30;;;;;;5094500;28;20168;-70
2023/07/21 08:46:31;;;;;;;0.00;0.00;;;23.70;77.50;;;;;;5094385;28;20176;-70
2023/07/21 08:48:59;;;;;;;0.00;0.00;;;23.90;76.80;;;;;;5094216;28;20211;-70
2023/07/21 08:51:25;;;;;;;0.00;0.00;;;23.90;75.10;;;;;;5094282;28;20160;-70
2023/07/21 08:53:50;;;;;;;0.00;0.00;;;24.00;75.90;;;;;;5094334;28;20275;-70
2023/07/21 08:56:17;;;;;;;0.00;0.00;;;24.10;75.40;;;;;;5094053;28;20172;-70
2023/07/21 08:58:43;;;;;;;0.00;0.00;;;24.30;75.70;;;;;;5094193;28;20168;-70
2023/07/21 09:01:09;;;;;;;0.00;0.00;;;24.50;75.50;;;;;;5094111;28;20180;-70
2023/07/21 09:03:34;;;;;;;0.00;0.00;;;24.70;75.20;;;;;;5094073;28;20570;-70
2023/07/21 09:06:01;;;;;;;0.00;0.00;;;25.10;74.20;;;;;;5093922;28;20176;-70
2023/07/21 09:08:33;;;;;;;0.00;0.00;;;25.30;72.70;;;;;;5093864;28;20211;-70
2023/07/21 09:11:03;;;;;;;0.10;0.10;;;25.40;70.60;;;;;;5093852;28;20218;-70
2023/07/21 09:13:30;;;;;;;0.00;0.00;;;25.40;70.10;;;;;;5093886;28;20188;-70
2023/07/21 09:16:00;;;;;;;0.00;0.00;;;25.40;69.30;;;;;;5093720;28;20242;-70
2023/07/21 09:18:27;;;;;;;0.00;0.00;;;25.30;68.90;;;;;;5093752;28;20578;-70
2023/07/21 09:20:53;;;;;;;0.00;0.00;;;25.40;69.50;;;;;;5093309;28;20202;-70
2023/07/21 09:23:20;;;;;;;0.00;0.00;;;25.50;67.00;;;;;;5093526;28;20263;-70
2023/07/21 09:25:53;;;;;;;0.00;0.00;;;25.60;66.60;;;;;;5093750;28;20168;-71
2023/07/21 09:28:20;;;;;;;0.00;0.00;;;25.70;66.10;;;;;;5093281;28;20227;-70
2023/07/21 09:30:53;;;;;;;0.00;0.00;;;25.70;65.40;;;;;;5093621;28;20491;-70
2023/07/21 09:33:24;;;;;;;0.00;0.00;;;25.70;66.90;;;;;;5093329;28;20180;-71
2023/07/21 09:35:50;;;;;;;0.00;0.00;;;25.60;67.00;;;;;;5093519;28;20224;-71
2023/07/21 09:38:16;;;;;;;0.00;0.00;;;25.70;66.90;;;;;;5093305;28;20306;-71
2023/07/21 09:40:42;;;;;;;0.00;0.00;;;25.90;67.20;;;;;;5093398;28;20273;-70
2023/07/21 09:43:10;;;;;;;0.00;0.00;;;26.10;66.40;;;;;;5093277;28;20168;-70
2023/07/21 09:45:37;;;;;;;0.00;0.00;;;26.30;64.10;;;;;;5093061;28;20662;-71
2023/07/21 09:48:03;;;;;;;0.00;0.00;;;26.40;62.10;;;;;;5093077;28;21223;-70
2023/07/21 09:50:29;;;;;;;0.00;0.00;;;26.80;63.00;;;;;;5093107;28;20188;-70
2023/07/21 09:52:55;;;;;;;0.00;0.00;;;27.30;61.50;;;;;;5093182;28;20172;-71
2023/07/21 09:55:22;;;;;;;0.00;0.00;;;27.60;58.90;;;;;;5091761;28;20165;-70
2023/07/21 09:57:49;;;;;;;1.02;0.90;;;27.70;59.00;;;;;;5093061;28;20168;-70
2023/07/21 10:00:16;;;;;;;0.00;0.00;;;27.80;57.40;;;;;;5092940;28;20268;-71
2023/07/21 10:02:47;;;;;;;0.00;0.00;;;28.00;57.90;;;;;;5092955;28;20241;-71
2023/07/21 10:05:14;;;;;;;0.00;0.00;;;28.40;58.50;;;;;;5092747;28;20658;-71
2023/07/21 10:07:47;;;;;;;0.00;0.00;;;28.80;56.90;;;;;;5092593;28;20211;-70
2023/07/21 10:10:14;;;;;;;0.00;0.00;;;29.00;55.60;;;;;;5092758;28;20178;-71
2023/07/21 10:12:51;;;;;;;0.00;0.00;;;29.30;56.10;;;;;;5092606;28;20172;-71
2023/07/21 10:15:19;;;;;;;0.00;0.00;;;29.70;56.50;;;;;;5092564;28;20196;-71
2023/07/21 10:17:59;;;;;;;0.00;0.00;;;30.10;56.50;;;;;;5092686;28;20176;-71
2023/07/21 10:20:44;;;;;;;0.00;0.00;;;30.20;54.70;;;;;;5092584;28;20567;-70
2023/07/21 10:23:12;;;;;;;0.00;0.00;;;30.40;54.50;;;;;;5092521;28;20168;-71
2023/07/21 10:25:46;;;;;;;0.00;0.00;;;30.70;53.90;;;;;;5092435;28;20176;-70
2023/07/21 10:28:12;;;;;;;0.00;0.00;;;31.20;51.60;;;;;;5092115;28;20235;-70
2023/07/21 10:30:37;;;;;;;0.00;0.00;;;31.40;50.80;;;;;;5092327;28;20186;-71
2023/07/21 10:33:17;;;;;;;0.00;0.00;;;31.50;51.30;;;;;;5090347;28;20258;-71
2023/07/21 10:35:43;;;;;;;0.00;0.00;;;31.30;48.90;;;;;;5092401;28;20199;-71
2023/07/21 10:38:15;;;;;;;0.00;0.00;;;31.30;49.20;;;;;;5092256;28;20280;-71
2023/07/21 10:40:41;;;;;;;0.00;0.00;;;31.50;50.00;;;;;;5092014;28;20229;-71
2023/07/21 10:43:06;;;;;;;0.00;0.00;;;31.40;49.30;;;;;;5092039;28;20176;-71
2023/07/21 10:45:32;;;;;;;0.00;0.00;;;31.50;49.20;;;;;;5092146;28;20179;-71
2023/07/21 10:48:11;;;;;;;0.00;0.00;;;31.60;48.30;;;;;;5091908;28;20212;-71
2023/07/21 10:50:58;;;;;;;0.00;0.00;;;31.80;47.90;;;;;;5091936;28;20588;-71
2023/07/21 10:53:24;;;;;;;0.00;0.00;;;32.10;47.60;;;;;;5091988;28;20195;-71
2023/07/21 10:55:53;;;;;;;0.00;0.00;;;32.30;47.80;;;;;;5091952;28;20628;-71
2023/07/21 10:58:20;;;;;;;0.00;0.00;;;32.20;46.10;;;;;;5091748;28;20203;-71
2023/07/21 11:00:50;;;;;;;0.00;0.00;;;31.90;47.20;;;;;;5091847;28;20168;-71
2023/07/21 11:03:18;;;;;;;0.10;0.10;;;31.20;47.00;;;;;;5091593;28;20191;-71
2023/07/21 11:05:44;;;;;;;0.00;0.00;;;30.70;47.20;;;;;;5091859;28;20185;-71
2023/07/21 11:08:27;;;;;;;0.00;0.00;;;30.70;48.00;;;;;;5091592;28;20212;-71
2023/07/21 11:10:53;;;;;;;0.00;0.00;;;30.60;48.60;;;;;;5090420;28;20210;-71
2023/07/21 11:13:21;;;;;;;0.00;0.00;;;30.50;48.60;;;;;;5091433;28;20527;-71
2023/07/21 11:15:54;;;;;;;0.00;0.00;;;30.20;48.00;;;;;;5091670;28;20199;-71
2023/07/21 11:18:20;;;;;;;0.00;0.00;;;29.60;48.10;;;;;;5091486;28;20544;-71
2023/07/21 11:20:51;;;;;;;0.00;0.00;;;29.20;48.10;;;;;;5091629;28;20183;-71
2023/07/21 11:23:17;;;;;;;0.00;0.00;;;28.70;48.50;;;;;;5091509;28;20172;-71
2023/07/21 11:26:01;;;;;;;0.00;0.00;;;28.40;49.40;;;;;;5091583;28;20164;-71
2023/07/21 11:28:28;;;;;;;0.00;0.00;;;28.40;49.70;;;;;;5091225;28;20238;-71
2023/07/21 11:30:54;;;;;;;0.00;0.00;;;28.20;50.20;;;;;;5091501;28;20199;-71
2023/07/21 11:33:19;;;;;;;0.00;0.00;;;28.00;50.30;;;;;;5091282;28;20207;-71
2023/07/21 11:35:48;;;;;;;0.00;0.00;;;28.00;50.70;;;;;;5091447;28;20173;-70
2023/07/21 11:38:14;;;;;;;0.00;0.00;;;27.80;51.70;;;;;;5091403;28;20172;-71
2023/07/21 11:40:40;;;;;;;0.00;0.00;;;27.30;51.30;;;;;;5091246;28;20309;-71
2023/07/21 11:43:07;;;;;;;0.00;0.00;;;27.20;52.80;;;;;;5091468;28;20191;-71
2023/07/21 11:45:39;;;;;;;0.00;0.00;;;26.90;53.50;;;;;;5094967;28;20624;-71
2023/07/21 11:48:14;;;;;;;0.00;0.00;;;26.70;53.50;;;;;;5095547;28;20214;-71
2023/07/21 11:50:47;;;;;;;0.00;0.00;;;26.60;54.50;;;;;;5095596;28;20661;-71
2023/07/21 11:53:12;;;;;;;0.00;0.00;;;26.70;54.40;;;;;;5095467;28;20172;-71
2023/07/21 11:55:38;;;;;;;0.00;0.00;;;27.00;54.90;;;;;;5095324;28;20632;-71
2023/07/21 11:58:04;;;;;;;0.00;0.00;;;27.10;54.60;;;;;;5095433;28;20220;-71
2023/07/21 12:00:31;;;;;;;0.00;0.00;;;27.10;54.70;;;;;;5095307;28;20175;-71
2023/07/21 12:02:59;;;;;;;0.00;0.00;;;27.10;53.70;;;;;;5095165;28;20188;-71
2023/07/21 12:05:25;;;;;;;0.00;0.00;;;27.20;53.40;;;;;;5094109;28;20220;-71
2023/07/21 12:07:52;;;;;;;0.00;0.00;;;27.10;53.80;;;;;;5095205;28;20651;-71
2023/07/21 12:10:18;;;;;;;0.00;0.00;;;27.00;53.60;;;;;;5095034;28;20561;-70
2023/07/21 12:12:44;;;;;;;0.00;0.00;;;26.70;54.20;;;;;;5095205;28;20180;-71
2023/07/21 12:15:13;;;;;;;0.00;0.00;;;26.50;55.20;;;;;;5095076;28;20179;-71
2023/07/21 12:17:39;;;;;;;0.00;0.00;;;26.20;55.40;;;;;;5094921;28;20172;-71
2023/07/21 12:20:14;;;;;;;0.00;0.00;;;25.90;55.50;;;;;;5094960;28;20183;-70
2023/07/21 12:22:41;;;;;;;0.00;0.00;;;25.80;55.80;;;;;;5094923;28;20171;-71
2023/07/21 12:25:08;;;;;;;0.43;0.43;;;25.50;55.90;;;;;;5094853;28;20252;-71
2023/07/21 12:27:34;;;;;;;0.00;0.00;;;25.50;56.20;;;;;;5094426;28;20232;-71
2023/07/21 12:30:07;;;;;;;0.00;0.00;;;25.30;56.40;;;;;;5094656;28;20184;-71
2023/07/21 12:32:33;;;;;;;0.20;0.20;;;25.10;56.50;;;;;;5094700;28;20199;-71
2023/07/21 12:34:59;;;;;;;0.00;0.00;;;25.00;57.30;;;;;;5093213;28;20643;-71
2023/07/21 12:37:24;;;;;;;0.00;0.00;;;24.70;57.90;;;;;;5094467;28;20225;-71
2023/07/21 12:39:51;;;;;;;0.00;0.00;;;24.50;57.90;;;;;;5094458;28;20633;-71
2023/07/21 12:42:16;;;;;;;0.00;0.00;;;24.30;58.00;;;;;;5094292;28;20176;-71
2023/07/21 12:44:43;;;;;;;0.00;0.00;;;24.10;58.70;;;;;;5094485;28;20172;-70
2023/07/21 12:47:09;;;;;;;0.00;0.00;;;23.80;58.80;;;;;;5093139;28;20222;-71